Time;durP1;ratioP1;P1;durP2;ratioP2;P2;SDS_P1;SDS_P2;PMS_P1;PMS_P2;Temp;Humidity;BMP_temperature;BMP_pressure;BME280_temperature;BME280_humidity;BME280_pressure;Samples;Min_cycle;Max_cycle;Signal;HPM_P1;HPM_P2
2022/05/12 00:01:54;;;;;;;;;;;;;;;;;;4937608;29;19933;-27
2022/05/12 00:04:20;;;;;;;;;;;;;;;;;;4937497;29;19994;-27
2022/05/12 00:06:47;;;;;;;;;;;;;;;;;;4937549;29;20026;-27
2022/05/12 00:09:13;;;;;;;;;;;;;;;;;;4937614;29;19950;-27
2022/05/12 00:11:39;;;;;;;;;;;;;;;;;;4937589;29;20456;-27
2022/05/12 00:14:05;;;;;;;;;;;;;;;;;;4937375;29;19971;-26
2022/05/12 00:16:31;;;;;;;;;;;;;;;;;;4937776;29;20255;-27
2022/05/12 00:18:57;;;;;;;;;;;;;;;;;;4937770;29;19907;-27
2022/05/12 00:21:23;;;;;;;;;;;;;;;;;;4938016;29;19910;-27
2022/05/12 00:23:58;;;;;;;;;;;;;;;;;;4937392;29;19911;-27
2022/05/12 00:26:24;;;;;;;;;;;;;;;;;;4938021;29;20001;-26
2022/05/12 00:28:50;;;;;;;;;;;;;;;;;;4937421;29;19942;-27
2022/05/12 00:31:16;;;;;;;;;;;;;;;;;;4937409;29;19915;-28
2022/05/12 00:33:42;;;;;;;;;;;;;;;;;;4937280;29;19910;-27
2022/05/12 00:36:08;;;;;;;;;;;;;;;;;;4939557;29;19921;-27
2022/05/12 00:38:34;;;;;;;;;;;;;;;;;;4940948;29;20259;-27
2022/05/12 00:41:00;;;;;;;;;;;;;;;;;;4941152;29;19974;-26
2022/05/12 00:43:26;;;;;;;;;;;;;;;;;;4941059;29;20288;-27
2022/05/12 00:45:52;;;;;;;;;;;;;;;;;;4941428;29;19910;-26
2022/05/12 00:48:18;;;;;;;;;;;;;;;;;;4941093;29;19969;-27
2022/05/12 00:50:44;;;;;;;;;;;;;;;;;;4941288;29;19938;-27
2022/05/12 00:53:10;;;;;;;;;;;;;;;;;;4940716;29;19917;-27
2022/05/12 00:55:36;;;;;;;;;;;;;;;;;;4940810;29;19915;-27
2022/05/12 00:58:02;;;;;;;;;;;;;;;;;;4941179;29;19906;-27
2022/05/12 01:00:28;;;;;;;;;;;;;;;;;;4940603;29;19917;-27
2022/05/12 01:02:54;;;;;;;;;;;;;;;;;;4940473;29;19907;-27
2022/05/12 01:05:20;;;;;;;;;;;;;;;;;;4939975;29;19969;-27
2022/05/12 01:07:46;;;;;;;;;;;;;;;;;;4940485;29;19911;-27
2022/05/12 01:10:12;;;;;;;;;;;;;;;;;;4940722;29;19926;-27
2022/05/12 01:12:38;;;;;;;;;;;;;;;;;;4940596;29;20304;-27
2022/05/12 01:15:04;;;;;;;;;;;;;;;;;;4940499;29;19911;-27
2022/05/12 01:17:30;;;;;;;;;;;;;;;;;;4940845;29;19910;-27
2022/05/12 01:19:56;;;;;;;;;;;;;;;;;;4923422;29;19907;-27
2022/05/12 01:22:22;;;;;;;;;;;;;;;;;;4940183;29;19915;-27
2022/05/12 01:24:48;;;;;;;;;;;;;;;;;;4940162;29;19911;-27
2022/05/12 01:27:20;;;;;;;;;;;;;;;;;;4940918;29;19953;-27
2022/05/12 01:29:46;;;;;;;;;;;;;;;;;;4940318;29;19907;-27
2022/05/12 01:32:11;;;;;;;;;;;;;;;;;;4939971;29;19973;-26
2022/05/12 01:34:37;;;;;;;;;;;;;;;;;;4939899;29;19911;-26
2022/05/12 01:37:03;;;;;;;;;;;;;;;;;;4939970;29;20344;-27
2022/05/12 01:39:30;;;;;;;;;;;;;;;;;;4939923;29;19990;-27
2022/05/12 01:41:56;;;;;;;;;;;;;;;;;;4939714;29;19911;-27
2022/05/12 01:44:22;;;;;;;;;;;;;;;;;;4939804;29;20255;-26
2022/05/12 01:46:48;;;;;;;;;;;;;;;;;;4939830;29;19910;-27
2022/05/12 01:49:14;;;;;;;;;;;;;;;;;;4939704;29;20002;-27
2022/05/12 01:51:40;;;;;;;;;;;;;;;;;;4939979;29;20016;-27
2022/05/12 01:54:06;;;;;;;;;;;;;;;;;;4939554;29;19914;-27
2022/05/12 01:56:32;;;;;;;;;;;;;;;;;;4939476;29;19915;-27
2022/05/12 01:58:58;;;;;;;;;;;;;;;;;;4939817;29;19906;-27
2022/05/12 02:01:24;;;;;;;;;;;;;;;;;;4939508;29;19998;-27
2022/05/12 02:03:50;;;;;;;;;;;;;;;;;;4939463;29;20005;-27
2022/05/12 02:06:16;;;;;;;;;;;;;;;;;;4939726;29;19903;-27
2022/05/12 02:08:42;;;;;;;;;;;;;;;;;;4939356;29;19911;-27
2022/05/12 02:11:08;;;;;;;;;;;;;;;;;;4939383;29;20341;-26
2022/05/12 02:13:34;;;;;;;;;;;;;;;;;;4939475;29;20279;-27
2022/05/12 02:16:00;;;;;;;;;;;;;;;;;;4939207;29;19911;-27
2022/05/12 02:18:27;;;;;;;;;;;;;;;;;;4939204;29;19918;-26
2022/05/12 02:20:53;;;;;;;;;;;;;;;;;;4939062;29;19907;-26
2022/05/12 02:23:19;;;;;;;;;;;;;;;;;;4939217;29;20249;-27
2022/05/12 02:25:45;;;;;;;;;;;;;;;;;;4939611;29;19907;-27
2022/05/12 02:28:11;;;;;;;;;;;;;;;;;;4939275;29;19914;-27
2022/05/12 02:30:37;;;;;;;;;;;;;;;;;;4938972;29;19957;-27
2022/05/12 02:33:03;;;;;;;;;;;;;;;;;;4939072;29;19914;-27
2022/05/12 02:35:29;;;;;;;;;;;;;;;;;;4938796;29;19982;-27
2022/05/12 02:37:55;;;;;;;;;;;;;;;;;;4938729;29;19910;-27
2022/05/12 02:40:21;;;;;;;;;;;;;;;;;;4939061;29;19921;-27
2022/05/12 02:42:47;;;;;;;;;;;;;;;;;;4938990;29;19911;-27
2022/05/12 02:45:13;;;;;;;;;;;;;;;;;;4938914;29;19910;-27
2022/05/12 02:47:39;;;;;;;;;;;;;;;;;;4938531;29;19921;-26
2022/05/12 02:50:05;;;;;;;;;;;;;;;;;;4938618;29;19907;-27
2022/05/12 02:52:31;;;;;;;;;;;;;;;;;;4938464;29;19950;-27
2022/05/12 02:54:58;;;;;;;;;;;;;;;;;;4938471;29;20024;-27
2022/05/12 02:57:24;;;;;;;;;;;;;;;;;;4938129;29;19921;-27
2022/05/12 02:59:50;;;;;;;;;;;;;;;;;;4938041;29;19907;-27
2022/05/12 03:02:16;;;;;;;;;;;;;;;;;;4938931;29;20344;-27
2022/05/12 03:04:42;;;;;;;;;;;;;;;;;;4938202;29;19926;-27
2022/05/12 03:07:08;;;;;;;;;;;;;;;;;;4938329;29;19918;-27
2022/05/12 03:09:34;;;;;;;;;;;;;;;;;;4938557;29;19942;-26
2022/05/12 03:12:00;;;;;;;;;;;;;;;;;;4938394;29;19921;-27
2022/05/12 03:14:26;;;;;;;;;;;;;;;;;;4938419;29;20263;-27
2022/05/12 03:16:53;;;;;;;;;;;;;;;;;;4938104;29;20364;-27
2022/05/12 03:19:19;;;;;;;;;;;;;;;;;;4938395;29;19933;-27
2022/05/12 03:21:46;;;;;;;;;;;;;;;;;;4938044;29;19918;-27
2022/05/12 03:24:12;;;;;;;;;;;;;;;;;;4938068;29;19950;-27
2022/05/12 03:26:38;;;;;;;;;;;;;;;;;;4938046;29;19911;-27
2022/05/12 03:29:04;;;;;;;;;;;;;;;;;;4938301;29;19913;-27
2022/05/12 03:31:30;;;;;;;;;;;;;;;;;;4938015;29;19911;-27
2022/05/12 03:33:56;;;;;;;;;;;;;;;;;;4937778;29;19911;-27
2022/05/12 03:36:22;;;;;;;;;;;;;;;;;;4937915;29;19911;-27
2022/05/12 03:38:48;;;;;;;;;;;;;;;;;;4937900;29;20324;-27
2022/05/12 03:41:14;;;;;;;;;;;;;;;;;;4937773;29;19911;-27
2022/05/12 03:46:25;;;;;;;;;;;;;;;;;;4937915;29;19918;-27
2022/05/12 03:48:51;;;;;;;;;;;;;;;;;;4938023;29;19919;-27
2022/05/12 03:51:17;;;;;;;;;;;;;;;;;;4937988;29;19986;-27
2022/05/12 03:53:43;;;;;;;;;;;;;;;;;;4937651;29;19907;-27
2022/05/12 03:56:09;;;;;;;;;;;;;;;;;;4938181;29;19915;-27
2022/05/12 03:58:35;;;;;;;;;;;;;;;;;;4937605;29;19918;-27
2022/05/12 04:01:01;;;;;;;;;;;;;;;;;;4938166;29;19915;-26
2022/05/12 04:03:27;;;;;;;;;;;;;;;;;;4937429;29;20332;-26
2022/05/12 04:05:54;;;;;;;;;;;;;;;;;;4937169;29;20275;-26
2022/05/12 04:08:21;;;;;;;;;;;;;;;;;;4937415;29;20001;-27
2022/05/12 04:10:48;;;;;;;;;;;;;;;;;;4940856;29;20251;-26
2022/05/12 04:13:16;;;;;;;;;;;;;;;;;;4941240;29;20005;-26
2022/05/12 04:15:42;;;;;;;;;;;;;;;;;;4941157;29;20316;-27
2022/05/12 04:18:08;;;;;;;;;;;;;;;;;;4941493;29;20297;-27
2022/05/12 04:20:34;;;;;;;;;;;;;;;;;;4941435;29;20332;-27
2022/05/12 04:23:00;;;;;;;;;;;;;;;;;;4941045;29;19994;-27
2022/05/12 04:25:26;;;;;;;;;;;;;;;;;;4941166;29;19917;-27
2022/05/12 04:27:52;;;;;;;;;;;;;;;;;;4940900;29;19982;-26
2022/05/12 04:30:18;;;;;;;;;;;;;;;;;;4940854;29;19911;-26
2022/05/12 04:32:44;;;;;;;;;;;;;;;;;;4941342;29;20324;-26
2022/05/12 04:35:11;;;;;;;;;;;;;;;;;;4940845;29;19922;-26
2022/05/12 04:37:37;;;;;;;;;;;;;;;;;;4940920;29;20237;-26
2022/05/12 04:40:03;;;;;;;;;;;;;;;;;;4941137;29;19914;-27
2022/05/12 04:42:29;;;;;;;;;;;;;;;;;;4940720;29;19911;-27
2022/05/12 04:44:55;;;;;;;;;;;;;;;;;;4940698;29;20259;-26
2022/05/12 04:47:21;;;;;;;;;;;;;;;;;;4940888;29;19911;-27
2022/05/12 04:49:47;;;;;;;;;;;;;;;;;;4940905;29;19933;-27
2022/05/12 04:52:13;;;;;;;;;;;;;;;;;;4940787;29;19918;-26
2022/05/12 04:54:39;;;;;;;;;;;;;;;;;;4940584;29;20249;-26
2022/05/12 04:57:05;;;;;;;;;;;;;;;;;;4941170;29;19910;-27
2022/05/12 04:59:31;;;;;;;;;;;;;;;;;;4940583;29;19998;-27
2022/05/12 05:01:57;;;;;;;;;;;;;;;;;;4940473;29;19955;-27
2022/05/12 05:04:23;;;;;;;;;;;;;;;;;;4940721;29;20340;-26
2022/05/12 05:06:49;;;;;;;;;;;;;;;;;;4940742;29;20247;-26
2022/05/12 05:09:15;;;;;;;;;;;;;;;;;;4940898;29;20046;-26
2022/05/12 05:11:41;;;;;;;;;;;;;;;;;;4940487;29;20342;-27
2022/05/12 05:14:07;;;;;;;;;;;;;;;;;;4940108;29;19942;-26
2022/05/12 05:16:33;;;;;;;;;;;;;;;;;;4940717;29;19957;-26
2022/05/12 05:18:59;;;;;;;;;;;;;;;;;;4940713;29;20232;-26
2022/05/12 05:21:25;;;;;;;;;;;;;;;;;;4939309;29;19915;-27
2022/05/12 05:23:51;;;;;;;;;;;;;;;;;;4940238;29;19910;-26
2022/05/12 05:26:18;;;;;;;;;;;;;;;;;;4940054;29;19907;-27
2022/05/12 05:28:44;;;;;;;;;;;;;;;;;;4940320;29;19911;-27
2022/05/12 05:31:10;;;;;;;;;;;;;;;;;;4940063;29;20002;-26
2022/05/12 05:33:36;;;;;;;;;;;;;;;;;;4939787;29;19911;-26
2022/05/12 05:36:02;;;;;;;;;;;;;;;;;;4939832;29;19921;-26
2022/05/12 05:38:28;;;;;;;;;;;;;;;;;;4939778;29;19911;-27
2022/05/12 05:40:54;;;;;;;;;;;;;;;;;;4939952;29;19910;-27
2022/05/12 05:43:21;;;;;;;;;;;;;;;;;;4939510;29;20340;-26
2022/05/12 05:45:47;;;;;;;;;;;;;;;;;;4939556;29;19910;-26
2022/05/12 05:48:13;;;;;;;;;;;;;;;;;;4939474;29;19966;-26
2022/05/12 05:53:23;;;;;;;;;;;;;;;;;;4939632;29;20279;-27
2022/05/12 05:55:49;;;;;;;;;;;;;;;;;;4939424;29;19922;-27
2022/05/12 05:58:15;;;;;;;;;;;;;;;;;;4939496;29;19910;-27
2022/05/12 06:03:23;;;;;;;;;;;;;;;;;;5279889;23;19921;-32
2022/05/12 06:05:50;;;;;;;;;;;;;;;;;;4998329;28;19910;-32
2022/05/12 06:08:16;;;;;;;;;;;;;;;;;;4996921;28;20322;-31
2022/05/12 06:10:42;;;;;;;;;;;;;;;;;;4996875;28;19910;-32
2022/05/12 06:13:09;;;;;;;;;;;;;;;;;;4996954;28;19913;-31
2022/05/12 06:15:35;;;;;;;;;;;;;;;;;;4997049;28;19925;-29
2022/05/12 06:18:01;;;;;;;;;;;;;;;;;;4997185;28;19910;-30
2022/05/12 06:20:27;;;;;;;;;;;;;;;;;;4997108;28;19905;-30
2022/05/12 06:22:53;;;;;;;;;;;;;;;;;;4996767;28;19960;-29
2022/05/12 06:25:19;;;;;;;;;;;;;;;;;;4979607;28;19909;-29
2022/05/12 06:27:45;;;;;;;;;;;;;;;;;;4996679;28;19909;-29
2022/05/12 06:30:11;;;;;;;;;;;;;;;;;;4996691;28;19906;-29
2022/05/12 06:32:38;;;;;;;;;;;;;;;;;;4996414;28;19920;-30
2022/05/12 06:35:04;;;;;;;;;;;;;;;;;;4996385;28;19920;-29
2022/05/12 06:37:30;;;;;;;;;;;;;;;;;;4996728;28;20313;-31
2022/05/12 06:39:56;;;;;;;;;;;;;;;;;;4996445;28;19952;-29
2022/05/12 06:42:22;;;;;;;;;;;;;;;;;;4979181;28;19921;-30
2022/05/12 06:44:48;;;;;;;;;;;;;;;;;;4996618;28;19968;-30
2022/05/12 06:47:14;;;;;;;;;;;;;;;;;;4996297;28;19910;-30
2022/05/12 06:49:40;;;;;;;;;;;;;;;;;;4996170;28;19913;-29
2022/05/12 06:52:06;;;;;;;;;;;;;;;;;;4996351;28;19910;-29
2022/05/12 06:54:32;;;;;;;;;;;;;;;;;;4996366;28;19917;-31
2022/05/12 06:56:59;;;;;;;;;;;;;;;;;;4996144;28;19914;-30
2022/05/12 06:59:25;;;;;;;;;;;;;;;;;;4996054;28;19914;-30
2022/05/12 07:01:51;;;;;;;;;;;;;;;;;;4996435;28;19916;-30
2022/05/12 07:04:17;;;;;;;;;;;;;;;;;;4995764;28;19917;-31
2022/05/12 07:06:43;;;;;;;;;;;;;;;;;;4995916;28;19910;-31
2022/05/12 07:09:09;;;;;;;;;;;;;;;;;;4996815;28;20249;-30
2022/05/12 07:11:35;;;;;;;;;;;;;;;;;;4996074;28;20309;-30
2022/05/12 07:14:01;;;;;;;;;;;;;;;;;;4995668;28;19906;-30
2022/05/12 07:16:27;;;;;;;;;;;;;;;;;;4996087;28;19941;-30
2022/05/12 07:18:53;;;;;;;;;;;;;;;;;;4995789;28;19912;-30
2022/05/12 07:27:08;;;;;;;;;;;;;;;;;;4917252;29;20002;-30
2022/05/12 07:29:34;;;;;;;;;;;;;;;;;;4917249;29;19957;-31
2022/05/12 07:32:00;;;;;;;;;;;;;;;;;;4953972;28;19910;-30
2022/05/12 07:34:27;;;;;;;;;;;;;;;;;;4995502;28;19921;-30
2022/05/12 07:36:53;;;;;;;;;;;;;;;;;;4995744;28;19920;-30
2022/05/12 07:39:19;;;;;;;;;;;;;;;;;;4995364;28;19909;-30
2022/05/12 07:41:45;;;;;;;;;;;;;;;;;;4995368;28;19975;-30
2022/05/12 07:44:13;;;;;;;;;;;;;;;;;;4995467;28;19936;-30
2022/05/12 07:46:39;;;;;;;;;;;;;;;;;;4995449;28;19910;-30
2022/05/12 07:49:05;;;;;;;;;;;;;;;;;;4995529;28;19909;-30
2022/05/12 07:51:31;;;;;;;;;;;;;;;;;;4995368;28;19928;-30
2022/05/12 07:53:57;;;;;;;;;;;;;;;;;;4995274;28;19909;-30
2022/05/12 07:56:23;;;;;;;;;;;;;;;;;;4995688;28;19996;-31
2022/05/12 07:58:49;;;;;;;;;;;;;;;;;;4995783;28;20291;-30
2022/05/12 08:01:15;;;;;;;;;;;;;;;;;;4995271;28;19913;-30
2022/05/12 08:03:42;;;;;;;;;;;;;;;;;;4995062;28;20350;-30
2022/05/12 08:06:08;;;;;;;;;;;;;;;;;;4995432;28;19909;-30
2022/05/12 08:08:35;;;;;;;;;;;;;;;;;;4995777;28;19971;-31
2022/05/12 08:11:01;;;;;;;;;;;;;;;;;;4995281;28;19906;-30
2022/05/12 08:13:27;;;;;;;;;;;;;;;;;;4995180;28;20227;-30
2022/05/12 08:15:53;;;;;;;;;;;;;;;;;;4995046;28;20477;-31
2022/05/12 08:18:21;;;;;;;;;;;;;;;;;;4995319;28;19920;-31
2022/05/12 08:20:47;;;;;;;;;;;;;;;;;;4995520;28;19917;-31
2022/05/12 08:23:13;;;;;;;;;;;;;;;;;;4995209;28;19909;-31
2022/05/12 08:25:39;;;;;;;;;;;;;;;;;;4995451;28;19925;-31
2022/05/12 08:28:05;;;;;;;;;;;;;;;;;;4995376;28;20000;-30
2022/05/12 08:30:31;;;;;;;;;;;;;;;;;;4995764;28;19906;-31
2022/05/12 08:32:57;;;;;;;;;;;;;;;;;;4994908;28;19910;-31
2022/05/12 08:35:23;;;;;;;;;;;;;;;;;;4977767;28;20016;-30
2022/05/12 08:37:49;;;;;;;;;;;;;;;;;;4994961;28;19941;-31
2022/05/12 08:40:15;;;;;;;;;;;;;;;;;;4995145;28;19910;-31
2022/05/12 08:42:41;;;;;;;;;;;;;;;;;;4995712;28;19910;-30
2022/05/12 08:45:07;;;;;;;;;;;;;;;;;;4995280;28;20334;-31
2022/05/12 08:47:34;;;;;;;;;;;;;;;;;;4995259;28;19906;-31
2022/05/12 08:50:00;;;;;;;;;;;;;;;;;;4994950;28;19963;-30
2022/05/12 08:52:26;;;;;;;;;;;;;;;;;;4995042;28;19914;-31
2022/05/12 08:54:52;;;;;;;;;;;;;;;;;;4995062;28;20344;-31
2022/05/12 08:57:18;;;;;;;;;;;;;;;;;;4997042;28;19965;-31
2022/05/12 08:59:44;;;;;;;;;;;;;;;;;;4998549;28;19916;-31
2022/05/12 09:02:10;;;;;;;;;;;;;;;;;;4998738;28;20012;-30
2022/05/12 09:04:36;;;;;;;;;;;;;;;;;;4998157;28;19925;-31
2022/05/12 09:07:02;;;;;;;;;;;;;;;;;;4998326;28;19956;-30
2022/05/12 09:09:28;;;;;;;;;;;;;;;;;;4998842;28;19916;-31
2022/05/12 09:11:54;;;;;;;;;;;;;;;;;;4998120;28;20404;-31
2022/05/12 09:14:20;;;;;;;;;;;;;;;;;;4998055;28;20005;-30
2022/05/12 09:16:46;;;;;;;;;;;;;;;;;;4998408;28;20000;-31
2022/05/12 09:19:13;;;;;;;;;;;;;;;;;;4998535;28;19910;-31
2022/05/12 09:21:39;;;;;;;;;;;;;;;;;;4997968;28;19914;-31
2022/05/12 09:24:07;;;;;;;;;;;;;;;;;;4997815;28;19917;-31
2022/05/12 09:26:33;;;;;;;;;;;;;;;;;;4997764;28;19978;-31
2022/05/12 09:28:59;;;;;;;;;;;;;;;;;;4997856;28;19978;-31
2022/05/12 09:31:25;;;;;;;;;;;;;;;;;;4997737;28;19950;-31
2022/05/12 09:33:54;;;;;;;;;;;;;;;;;;4997897;28;19909;-31
2022/05/12 09:36:20;;;;;;;;;;;;;;;;;;4997719;28;19909;-31
2022/05/12 09:38:46;;;;;;;;;;;;;;;;;;4997699;28;19909;-30
2022/05/12 09:41:12;;;;;;;;;;;;;;;;;;4997745;28;19913;-30
2022/05/12 09:43:38;;;;;;;;;;;;;;;;;;4997441;28;20071;-31
2022/05/12 09:46:04;;;;;;;;;;;;;;;;;;4997819;28;20334;-30
2022/05/12 09:48:31;;;;;;;;;;;;;;;;;;4997304;28;19910;-30
2022/05/12 09:50:57;;;;;;;;;;;;;;;;;;4996998;28;20382;-30
2022/05/12 09:53:23;;;;;;;;;;;;;;;;;;4997075;28;19949;-30
2022/05/12 09:55:49;;;;;;;;;;;;;;;;;;4997000;28;19975;-31
2022/05/12 09:58:15;;;;;;;;;;;;;;;;;;4997071;28;20311;-30
2022/05/12 10:00:41;;;;;;;;;;;;;;;;;;4979799;28;20361;-30
2022/05/12 10:08:36;;;;;;;;;;;;;;;;;;4996479;28;19916;-31
2022/05/12 10:11:02;;;;;;;;;;;;;;;;;;4996800;28;19910;-31
2022/05/12 10:13:28;;;;;;;;;;;;;;;;;;4996853;28;20254;-31
2022/05/12 10:15:54;;;;;;;;;;;;;;;;;;4996606;28;19921;-31
2022/05/12 10:18:20;;;;;;;;;;;;;;;;;;4996773;28;19909;-31
2022/05/12 10:20:46;;;;;;;;;;;;;;;;;;4996886;28;20353;-30
2022/05/12 10:23:12;;;;;;;;;;;;;;;;;;4996359;28;19985;-31
2022/05/12 10:25:39;;;;;;;;;;;;;;;;;;4996574;28;19914;-31
2022/05/12 10:28:06;;;;;;;;;;;;;;;;;;4996440;28;19916;-31
2022/05/12 10:30:32;;;;;;;;;;;;;;;;;;4996976;28;19909;-31
2022/05/12 10:32:58;;;;;;;;;;;;;;;;;;4996657;28;19905;-30
2022/05/12 10:35:24;;;;;;;;;;;;;;;;;;4996240;28;19921;-31
2022/05/12 10:37:50;;;;;;;;;;;;;;;;;;4996371;28;19913;-31
2022/05/12 10:40:16;;;;;;;;;;;;;;;;;;4996811;28;19920;-31
2022/05/12 10:42:42;;;;;;;;;;;;;;;;;;4996764;28;19941;-30
2022/05/12 10:45:08;;;;;;;;;;;;;;;;;;4996311;28;19909;-31
2022/05/12 10:47:34;;;;;;;;;;;;;;;;;;4996674;28;20338;-31
2022/05/12 10:50:00;;;;;;;;;;;;;;;;;;4996400;28;19952;-31
2022/05/12 10:52:27;;;;;;;;;;;;;;;;;;4996255;28;20262;-31
2022/05/12 10:54:53;;;;;;;;;;;;;;;;;;4996426;28;19914;-31
2022/05/12 10:57:19;;;;;;;;;;;;;;;;;;4996421;28;20222;-30
2022/05/12 10:59:45;;;;;;;;;;;;;;;;;;4996723;28;19921;-31
2022/05/12 11:02:11;;;;;;;;;;;;;;;;;;4995980;28;20004;-31
2022/05/12 11:04:37;;;;;;;;;;;;;;;;;;4978817;28;19918;-30
2022/05/12 11:07:04;;;;;;;;;;;;;;;;;;4996002;28;19964;-31
2022/05/12 11:09:30;;;;;;;;;;;;;;;;;;4995979;28;19992;-31
2022/05/12 11:11:56;;;;;;;;;;;;;;;;;;4996211;28;20330;-31
2022/05/12 11:14:22;;;;;;;;;;;;;;;;;;4995937;28;20381;-30
2022/05/12 11:16:48;;;;;;;;;;;;;;;;;;4995893;28;20000;-31
2022/05/12 11:19:14;;;;;;;;;;;;;;;;;;4995413;28;19920;-31
2022/05/12 11:21:40;;;;;;;;;;;;;;;;;;4995571;28;19910;-31
2022/05/12 11:24:06;;;;;;;;;;;;;;;;;;4996246;28;19906;-30
2022/05/12 11:26:32;;;;;;;;;;;;;;;;;;4995958;28;19920;-31
2022/05/12 11:31:42;;;;;;;;;;;;;;;;;;4995709;28;19913;-31
2022/05/12 11:34:08;;;;;;;;;;;;;;;;;;4995474;28;19929;-31
2022/05/12 11:36:34;;;;;;;;;;;;;;;;;;4995856;28;19906;-31
2022/05/12 11:39:01;;;;;;;;;;;;;;;;;;4995546;28;19910;-31
2022/05/12 11:41:27;;;;;;;;;;;;;;;;;;4995820;28;19920;-31
2022/05/12 11:46:39;;;;;;;;;;;;;;;;;;4995620;28;19920;-31
2022/05/12 11:49:05;;;;;;;;;;;;;;;;;;4995372;28;19968;-30
2022/05/12 11:51:31;;;;;;;;;;;;;;;;;;4995381;28;19906;-30
2022/05/12 11:53:57;;;;;;;;;;;;;;;;;;4995624;28;19992;-30
2022/05/12 11:56:24;;;;;;;;;;;;;;;;;;4995389;28;19913;-30
2022/05/12 11:58:50;;;;;;;;;;;;;;;;;;4995605;28;19920;-31
2022/05/12 12:01:16;;;;;;;;;;;;;;;;;;4995442;28;20315;-31
2022/05/12 12:03:41;;;;;;;;;;;;;;;;;;4995106;28;20347;-30
2022/05/12 12:06:08;;;;;;;;;;;;;;;;;;4995318;28;19906;-30
2022/05/12 12:08:34;;;;;;;;;;;;;;;;;;4995247;28;19909;-30
2022/05/12 12:11:00;;;;;;;;;;;;;;;;;;4995319;28;19968;-31
2022/05/12 12:13:26;;;;;;;;;;;;;;;;;;4995101;28;19920;-30
2022/05/12 12:15:52;;;;;;;;;;;;;;;;;;4995144;28;20019;-31
2022/05/12 12:18:18;;;;;;;;;;;;;;;;;;4995239;28;19910;-30
2022/05/12 12:20:44;;;;;;;;;;;;;;;;;;4995264;28;19954;-31
2022/05/12 12:23:10;;;;;;;;;;;;;;;;;;4995099;28;19920;-31
2022/05/12 12:25:36;;;;;;;;;;;;;;;;;;4978044;28;20000;-30
2022/05/12 12:28:02;;;;;;;;;;;;;;;;;;4995108;28;19910;-30
2022/05/12 12:30:29;;;;;;;;;;;;;;;;;;4996193;28;19913;-30
2022/05/12 12:32:55;;;;;;;;;;;;;;;;;;4981686;28;19919;-31
2022/05/12 12:35:21;;;;;;;;;;;;;;;;;;4998775;28;20298;-30
2022/05/12 12:37:47;;;;;;;;;;;;;;;;;;4998974;28;20290;-30
2022/05/12 12:40:13;;;;;;;;;;;;;;;;;;4999167;28;19962;-30
2022/05/12 12:42:41;;;;;;;;;;;;;;;;;;4998496;28;19913;-31
2022/05/12 12:45:07;;;;;;;;;;;;;;;;;;4998503;28;19992;-30
2022/05/12 12:47:33;;;;;;;;;;;;;;;;;;4998691;28;19949;-30
2022/05/12 12:49:59;;;;;;;;;;;;;;;;;;4998301;28;19996;-30
2022/05/12 12:52:25;;;;;;;;;;;;;;;;;;4981137;28;19952;-30
2022/05/12 12:57:35;;;;;;;;;;;;;;;;;;4998569;28;19917;-31
2022/05/12 13:00:01;;;;;;;;;;;;;;;;;;4998253;28;19906;-32
2022/05/12 13:02:27;;;;;;;;;;;;;;;;;;4998361;28;20433;-31
2022/05/12 13:04:54;;;;;;;;;;;;;;;;;;4998286;28;19913;-31
2022/05/12 13:07:20;;;;;;;;;;;;;;;;;;4998760;28;19916;-30
2022/05/12 13:09:48;;;;;;;;;;;;;;;;;;4998217;28;19910;-30
2022/05/12 13:12:14;;;;;;;;;;;;;;;;;;4998450;28;19913;-31
2022/05/12 13:14:40;;;;;;;;;;;;;;;;;;4998123;28;19914;-31
2022/05/12 13:17:06;;;;;;;;;;;;;;;;;;4998586;28;20350;-31
2022/05/12 13:19:32;;;;;;;;;;;;;;;;;;4997798;28;19909;-31
2022/05/12 13:21:58;;;;;;;;;;;;;;;;;;4997652;28;19949;-31
2022/05/12 13:24:27;;;;;;;;;;;;;;;;;;4997835;28;20365;-31
2022/05/12 13:26:53;;;;;;;;;;;;;;;;;;4998115;28;20246;-31
2022/05/12 13:29:19;;;;;;;;;;;;;;;;;;4997809;28;20398;-31
2022/05/12 13:31:45;;;;;;;;;;;;;;;;;;4998072;28;19910;-30
2022/05/12 13:34:11;;;;;;;;;;;;;;;;;;4997652;28;19968;-31
2022/05/12 13:36:38;;;;;;;;;;;;;;;;;;4998365;28;19913;-31
2022/05/12 13:39:04;;;;;;;;;;;;;;;;;;4997691;28;20239;-30
2022/05/12 13:41:35;;;;;;;;;;;;;;;;;;4997612;28;19916;-31
2022/05/12 13:44:01;;;;;;;;;;;;;;;;;;4997159;28;19956;-31
2022/05/12 13:46:27;;;;;;;;;;;;;;;;;;4997606;28;19964;-30
2022/05/12 13:48:53;;;;;;;;;;;;;;;;;;4997612;28;20319;-32
2022/05/12 13:51:19;;;;;;;;;;;;;;;;;;4997687;28;19914;-31
2022/05/12 13:53:45;;;;;;;;;;;;;;;;;;4997374;28;19906;-31
2022/05/12 13:56:11;;;;;;;;;;;;;;;;;;4997284;28;20254;-32
2022/05/12 13:58:37;;;;;;;;;;;;;;;;;;4997594;28;20005;-31
2022/05/12 14:01:05;;;;;;;;;;;;;;;;;;4997313;28;19917;-30
2022/05/12 14:03:32;;;;;;;;;;;;;;;;;;4980209;28;19995;-31
2022/05/12 14:05:58;;;;;;;;;;;;;;;;;;4997270;28;19910;-31
2022/05/12 14:08:26;;;;;;;;;;;;;;;;;;4997384;28;20350;-31
2022/05/12 14:10:53;;;;;;;;;;;;;;;;;;4997336;28;19906;-31
2022/05/12 14:21:33;;;;;;;;;;;;;;;;;;4997231;28;20018;-30
2022/05/12 14:23:59;;;;;;;;;;;;;;;;;;4996792;28;20342;-31
2022/05/12 14:26:25;;;;;;;;;;;;;;;;;;4996825;28;20246;-30
2022/05/12 14:28:52;;;;;;;;;;;;;;;;;;4997305;28;19909;-30
2022/05/12 14:31:18;;;;;;;;;;;;;;;;;;4997245;28;20208;-30
2022/05/12 14:33:44;;;;;;;;;;;;;;;;;;4996524;28;19920;-30
2022/05/12 14:36:10;;;;;;;;;;;;;;;;;;4996614;28;20035;-30
2022/05/12 14:38:36;;;;;;;;;;;;;;;;;;4996888;28;19920;-31
2022/05/12 14:41:02;;;;;;;;;;;;;;;;;;4996895;28;20342;-31
2022/05/12 14:43:28;;;;;;;;;;;;;;;;;;4996486;28;20360;-31
2022/05/12 14:45:54;;;;;;;;;;;;;;;;;;4996444;28;19996;-30
2022/05/12 14:48:20;;;;;;;;;;;;;;;;;;4996503;28;20227;-30
2022/05/12 14:50:46;;;;;;;;;;;;;;;;;;4996961;28;20394;-31
2022/05/12 14:53:14;;;;;;;;;;;;;;;;;;4996001;28;19940;-30
2022/05/12 14:55:40;;;;;;;;;;;;;;;;;;4995681;28;20303;-30
2022/05/12 14:58:06;;;;;;;;;;;;;;;;;;4996253;28;19948;-30
2022/05/12 15:00:32;;;;;;;;;;;;;;;;;;4979074;28;19906;-31
2022/05/12 15:02:58;;;;;;;;;;;;;;;;;;4996309;28;19936;-31
2022/05/12 15:05:24;;;;;;;;;;;;;;;;;;4996181;28;19913;-31
2022/05/12 15:07:50;;;;;;;;;;;;;;;;;;4996130;28;19910;-30
2022/05/12 15:10:16;;;;;;;;;;;;;;;;;;4996092;28;19905;-31
2022/05/12 15:12:42;;;;;;;;;;;;;;;;;;4996016;28;19909;-30
2022/05/12 15:15:08;;;;;;;;;;;;;;;;;;4996261;28;19917;-31
2022/05/12 15:17:34;;;;;;;;;;;;;;;;;;4996257;28;19961;-30
2022/05/12 15:20:00;;;;;;;;;;;;;;;;;;4996255;28;20330;-30
2022/05/12 15:22:26;;;;;;;;;;;;;;;;;;4995884;28;19909;-31
2022/05/12 15:24:52;;;;;;;;;;;;;;;;;;4995962;28;20004;-31
2022/05/12 15:27:18;;;;;;;;;;;;;;;;;;4996191;28;19909;-31
2022/05/12 15:29:46;;;;;;;;;;;;;;;;;;4996197;28;19916;-31
2022/05/12 15:32:12;;;;;;;;;;;;;;;;;;4995737;28;19920;-30
2022/05/12 15:34:38;;;;;;;;;;;;;;;;;;4995726;28;19917;-31
2022/05/12 15:37:04;;;;;;;;;;;;;;;;;;4995743;28;19952;-30
2022/05/12 15:39:30;;;;;;;;;;;;;;;;;;4995920;28;19928;-31
2022/05/12 15:41:56;;;;;;;;;;;;;;;;;;4995408;28;19959;-31
2022/05/12 15:44:22;;;;;;;;;;;;;;;;;;4995492;28;19905;-31
2022/05/12 15:46:48;;;;;;;;;;;;;;;;;;4995585;28;19913;-31
2022/05/12 15:49:14;;;;;;;;;;;;;;;;;;4996050;28;19910;-31
2022/05/12 15:51:40;;;;;;;;;;;;;;;;;;4995419;28;20408;-31
2022/05/12 15:54:06;;;;;;;;;;;;;;;;;;4995549;28;19906;-31
2022/05/12 15:56:32;;;;;;;;;;;;;;;;;;4995300;28;19913;-31
2022/05/12 15:58:58;;;;;;;;;;;;;;;;;;4995580;28;20074;-31
2022/05/12 16:01:24;;;;;;;;;;;;;;;;;;4995473;28;19906;-31
2022/05/12 16:03:51;;;;;;;;;;;;;;;;;;4995029;28;19918;-31
2022/05/12 16:06:17;;;;;;;;;;;;;;;;;;4998130;28;20257;-31
2022/05/12 16:08:43;;;;;;;;;;;;;;;;;;4999353;28;20405;-31
2022/05/12 16:11:09;;;;;;;;;;;;;;;;;;4999414;28;19980;-32
2022/05/12 16:13:37;;;;;;;;;;;;;;;;;;4999289;28;19909;-31
2022/05/12 16:16:03;;;;;;;;;;;;;;;;;;4999199;28;19913;-32
2022/05/12 16:18:29;;;;;;;;;;;;;;;;;;4999132;28;19972;-31
2022/05/12 16:20:55;;;;;;;;;;;;;;;;;;4999529;28;19916;-31
2022/05/12 16:23:21;;;;;;;;;;;;;;;;;;4999186;28;19917;-31
2022/05/12 16:25:47;;;;;;;;;;;;;;;;;;4999301;28;19992;-31
2022/05/12 16:28:15;;;;;;;;;;;;;;;;;;4999054;28;20019;-31
2022/05/12 16:30:41;;;;;;;;;;;;;;;;;;4998983;28;19989;-31
2022/05/12 16:33:07;;;;;;;;;;;;;;;;;;4998900;28;20320;-31
2022/05/12 16:35:33;;;;;;;;;;;;;;;;;;4999366;28;19914;-32
2022/05/12 16:38:00;;;;;;;;;;;;;;;;;;4998895;28;19972;-31
2022/05/12 16:40:26;;;;;;;;;;;;;;;;;;4999386;28;19909;-31
2022/05/12 16:42:52;;;;;;;;;;;;;;;;;;4998698;28;19917;-30
2022/05/12 16:45:18;;;;;;;;;;;;;;;;;;4998677;28;19960;-30
2022/05/12 16:47:44;;;;;;;;;;;;;;;;;;4999012;28;19910;-30
2022/05/12 16:50:10;;;;;;;;;;;;;;;;;;4998761;28;19913;-30
2022/05/12 16:52:36;;;;;;;;;;;;;;;;;;4998616;28;19910;-30
2022/05/12 16:55:01;;;;;;;;;;;;;;;;;;4998485;28;20330;-30
2022/05/12 16:57:27;;;;;;;;;;;;;;;;;;4998483;28;20342;-30
2022/05/12 16:59:58;;;;;;;;;;;;;;;;;;4998590;28;19913;-31
2022/05/12 17:02:24;;;;;;;;;;;;;;;;;;4998194;28;19914;-29
2022/05/12 17:04:50;;;;;;;;;;;;;;;;;;4998765;28;19910;-30
2022/05/12 17:07:18;;;;;;;;;;;;;;;;;;4998414;28;19909;-30
2022/05/12 17:09:44;;;;;;;;;;;;;;;;;;4998279;28;19916;-29
2022/05/12 17:12:10;;;;;;;;;;;;;;;;;;4998703;28;19919;-29
2022/05/12 17:14:36;;;;;;;;;;;;;;;;;;4998152;28;20320;-30